KBLU/BLU METAR and TAF weather

Enter ICAO airport designator
Station Type Date Time Source
KBLU METAR 2019/10/16 18:52 UTC NOAA

KBLU 161852Z AUTO 16006KT 10SM CLR 17/M04 A3015 RMK AO2 SLP146 T01671044


Station Type Date Time Source
KBLU Decoded METAR 2019/10/16 18:52 UTC NOAA

BLUE CANYON AIRPORT, CA, United States (KBLU) 39-17N 120-42W 1609M
Oct 16, 2019 - 02:52 PM EDT / 2019.10.16 1852 UTC
Wind: from the SSE (160 degrees) at 7 MPH (6 KT):0
Visibility: 10 mile(s):0
Sky conditions: clear
Temperature: 62.1 F (16.7 C)
Dew Point: 24.1 F (-4.4 C)
Relative Humidity: 23%
Pressure (altimeter): 30.15 in. Hg (1020 hPa)
ob: KBLU 161852Z AUTO 16006KT 10SM CLR 17/M04 A3015 RMK AO2 SLP146 T01671044
cycle: 19

Station Type Date Time Source
KBLU TAF UTC NOAA

Error!

Example: see airport list